Current | Forecast
Updated: 1:00 AM CEST on May 28, 2018
Observed at Madrid / Torrejon, Spain
Temperature 15°C
Humidity 94%
Dew Point 14°C
Wind Variable at 4 km/h
Pressure 1015 hPa (Steady)
Conditions Light Drizzle
Visibility 10.0 kilometers
UV 0 out of 16
Clouds Scattered Clouds (SCT) : 2072 m
Yesterday's Maximum 26°C
Yesterday's Minimum 15°C approx.
Yesterday's Cooling Degree Days 4 approx.
Sunrise6:46 AM CEST
Sunset9:34 PM CEST
Moon Rise8:29 PM CEST
Moon Set6:21 AM CEST
Moon PhaseMoon Phase
Waxing Gibbous
Raw METARMETAR LETO 272300Z VRB02KT 9999 -DZ SCT068 15/14 Q1015 NOSIG


Monday
. High: 73° F.
Tuesday
. High: 78° F.
Wednesday
. High: 66° F.
Thursday
. High: 68° F.
Friday
. High: 78° F.
Saturday
. High: 71° F.
Sunday
. High: 77° F.
Monday
. High: 82° F.

Units: English | Metric

Find the Weather for any City, State or Zipcode, or Country:

U.S. State List | Severe Weather | Tropical Storms | Ski Conditions
United States | Canada | Central America | South America | Asia | Europe | Australia | Africa | Islands

Weather Underground

© Copyright 2018
The Weather Company, LLC